sensor_id;sensor_type;location;lat;lon;timestamp;pressure;altitude;pressure_sealevel;temperature;humidity
39309;BME280;26019;47.510;19.122;2023-05-24T00:03:28;99961.03;;;16.88;100.00
39309;BME280;26019;47.510;19.122;2023-05-24T00:13:36;99957.25;;;16.73;100.00
39309;BME280;26019;47.510;19.122;2023-05-24T00:23:38;99935.78;;;16.66;100.00
39309;BME280;26019;47.510;19.122;2023-05-24T00:33:39;99935.41;;;16.52;100.00
39309;BME280;26019;47.510;19.122;2023-05-24T00:43:41;99933.41;;;16.36;100.00
39309;BME280;26019;47.510;19.122;2023-05-24T00:53:47;99934.91;;;16.18;100.00
39309;BME280;26019;47.510;19.122;2023-05-24T01:03:51;99940.84;;;16.22;100.00
39309;BME280;26019;47.510;19.122;2023-05-24T01:14:26;99943.53;;;16.20;100.00
39309;BME280;26019;47.510;19.122;2023-05-24T01:24:35;99932.44;;;16.13;100.00
39309;BME280;26019;47.510;19.122;2023-05-24T01:34:42;99930.31;;;16.00;100.00
39309;BME280;26019;47.510;19.122;2023-05-24T01:45:09;99919.22;;;15.67;100.00
39309;BME280;26019;47.510;19.122;2023-05-24T01:55:16;99917.94;;;15.54;100.00
39309;BME280;26019;47.510;19.122;2023-05-24T02:05:18;99918.22;;;15.45;100.00
39309;BME280;26019;47.510;19.122;2023-05-24T02:15:21;99921.47;;;15.25;100.00
39309;BME280;26019;47.510;19.122;2023-05-24T02:25:24;99916.63;;;15.12;100.00
39309;BME280;26019;47.510;19.122;2023-05-24T02:35:26;99921.09;;;15.08;100.00
39309;BME280;26019;47.510;19.122;2023-05-24T02:45:27;99912.66;;;15.00;100.00
39309;BME280;26019;47.510;19.122;2023-05-24T02:55:29;99910.97;;;14.99;100.00
39309;BME280;26019;47.510;19.122;2023-05-24T03:05:32;99922.88;;;15.06;100.00
39309;BME280;26019;47.510;19.122;2023-05-24T03:15:35;99927.38;;;15.01;100.00
39309;BME280;26019;47.510;19.122;2023-05-24T03:25:37;99916.16;;;14.99;100.00
39309;BME280;26019;47.510;19.122;2023-05-24T03:35:39;99915.91;;;15.08;100.00
39309;BME280;26019;47.510;19.122;2023-05-24T03:45:40;99924.91;;;15.25;100.00
39309;BME280;26019;47.510;19.122;2023-05-24T03:55:42;99939.16;;;15.42;100.00
39309;BME280;26019;47.510;19.122;2023-05-24T04:05:44;99943.56;;;15.66;100.00
39309;BME280;26019;47.510;19.122;2023-05-24T04:15:47;99952.16;;;15.95;100.00
39309;BME280;26019;47.510;19.122;2023-05-24T04:25:49;99959.47;;;16.36;100.00
39309;BME280;26019;47.510;19.122;2023-05-24T04:35:51;99963.91;;;16.33;100.00
39309;BME280;26019;47.510;19.122;2023-05-24T04:45:54;99974.00;;;16.67;100.00
39309;BME280;26019;47.510;19.122;2023-05-24T04:55:55;99978.19;;;16.95;100.00
39309;BME280;26019;47.510;19.122;2023-05-24T05:05:59;99976.78;;;17.10;100.00
39309;BME280;26019;47.510;19.122;2023-05-24T05:16:02;99997.47;;;17.82;100.00
39309;BME280;26019;47.510;19.122;2023-05-24T05:26:04;100002.56;;;18.68;100.00
39309;BME280;26019;47.510;19.122;2023-05-24T05:36:10;99997.00;;;18.15;100.00
39309;BME280;26019;47.510;19.122;2023-05-24T05:46:13;100002.41;;;17.67;100.00
39309;BME280;26019;47.510;19.122;2023-05-24T05:56:16;100011.25;;;18.08;100.00
39309;BME280;26019;47.510;19.122;2023-05-24T06:06:18;100016.41;;;19.09;100.00
39309;BME280;26019;47.510;19.122;2023-05-24T06:16:20;100029.72;;;19.24;100.00
39309;BME280;26019;47.510;19.122;2023-05-24T06:26:21;100032.19;;;19.64;100.00
39309;BME280;26019;47.510;19.122;2023-05-24T06:36:23;100036.13;;;20.27;100.00
39309;BME280;26019;47.510;19.122;2023-05-24T06:46:26;100035.03;;;20.49;100.00
39309;BME280;26019;47.510;19.122;2023-05-24T06:56:29;100044.81;;;20.96;100.00
39309;BME280;26019;47.510;19.122;2023-05-24T07:06:31;100043.94;;;20.80;100.00
39309;BME280;26019;47.510;19.122;2023-05-24T07:16:35;100059.22;;;20.54;100.00
39309;BME280;26019;47.510;19.122;2023-05-24T07:26:37;100065.34;;;21.06;100.00
39309;BME280;26019;47.510;19.122;2023-05-24T07:36:40;100075.59;;;19.89;100.00
39309;BME280;26019;47.510;19.122;2023-05-24T07:46:42;100074.09;;;20.37;100.00
39309;BME280;26019;47.510;19.122;2023-05-24T07:56:44;100083.91;;;21.18;100.00
39309;BME280;26019;47.510;19.122;2023-05-24T08:06:46;100091.63;;;21.86;100.00
39309;BME280;26019;47.510;19.122;2023-05-24T08:16:48;100095.06;;;22.33;100.00
39309;BME280;26019;47.510;19.122;2023-05-24T08:26:51;100107.22;;;23.09;99.37
39309;BME280;26019;47.510;19.122;2023-05-24T08:36:56;100107.28;;;23.37;95.81
39309;BME280;26019;47.510;19.122;2023-05-24T08:46:58;100118.38;;;22.70;92.10
39309;BME280;26019;47.510;19.122;2023-05-24T08:57:01;100133.84;;;23.05;89.57
39309;BME280;26019;47.510;19.122;2023-05-24T09:07:03;100139.78;;;23.08;87.74
39309;BME280;26019;47.510;19.122;2023-05-24T09:17:05;100141.47;;;23.09;86.98
39309;BME280;26019;47.510;19.122;2023-05-24T09:27:06;100135.44;;;25.87;64.14
39309;BME280;26019;47.510;19.122;2023-05-24T09:37:15;100131.31;;;27.47;55.06
39309;BME280;26019;47.510;19.122;2023-05-24T09:47:18;100119.72;;;29.89;48.20
39309;BME280;26019;47.510;19.122;2023-05-24T09:57:20;100123.50;;;31.31;40.55
39309;BME280;26019;47.510;19.122;2023-05-24T10:07:26;100128.44;;;29.00;48.53
39309;BME280;26019;47.510;19.122;2023-05-24T10:17:28;100128.03;;;30.06;43.09
39309;BME280;26019;47.510;19.122;2023-05-24T10:27:30;100131.88;;;32.89;37.73
39309;BME280;26019;47.510;19.122;2023-05-24T10:37:34;100126.31;;;31.76;37.66
39309;BME280;26019;47.510;19.122;2023-05-24T10:47:36;100128.34;;;33.32;34.10
39309;BME280;26019;47.510;19.122;2023-05-24T10:57:40;100114.25;;;31.71;35.58
39309;BME280;26019;47.510;19.122;2023-05-24T11:07:43;100118.25;;;33.17;34.82
39309;BME280;26019;47.510;19.122;2023-05-24T11:28:15;100102.59;;;36.21;27.84
39309;BME280;26019;47.510;19.122;2023-05-24T11:38:18;100094.19;;;35.54;30.64
39309;BME280;26019;47.510;19.122;2023-05-24T11:48:24;100081.41;;;33.62;32.09
39309;BME280;26019;47.510;19.122;2023-05-24T11:58:43;100082.53;;;29.39;40.20
39309;BME280;26019;47.510;19.122;2023-05-24T12:08:49;100098.84;;;29.85;38.69
39309;BME280;26019;47.510;19.122;2023-05-24T12:18:51;100094.09;;;31.95;35.03
39309;BME280;26019;47.510;19.122;2023-05-24T12:29:09;100079.81;;;35.47;29.25
39309;BME280;26019;47.510;19.122;2023-05-24T12:39:23;100074.75;;;37.84;25.96
39309;BME280;26019;47.510;19.122;2023-05-24T12:49:32;100068.78;;;40.17;23.04
39309;BME280;26019;47.510;19.122;2023-05-24T12:59:33;100068.97;;;40.42;22.71
39309;BME280;26019;47.510;19.122;2023-05-24T13:09:41;100054.44;;;40.23;22.87
39309;BME280;26019;47.510;19.122;2023-05-24T13:19:43;100060.25;;;39.60;22.18
39309;BME280;26019;47.510;19.122;2023-05-24T13:29:45;100050.81;;;39.22;23.50
39309;BME280;26019;47.510;19.122;2023-05-24T13:40:02;100048.59;;;39.39;22.68
39309;BME280;26019;47.510;19.122;2023-05-24T13:50:05;100049.66;;;39.92;22.16
39309;BME280;26019;47.510;19.122;2023-05-24T14:00:08;100044.06;;;39.80;21.50
39309;BME280;26019;47.510;19.122;2023-05-24T14:10:10;100033.19;;;38.29;23.15
39309;BME280;26019;47.510;19.122;2023-05-24T14:20:13;100031.13;;;40.09;22.43
39309;BME280;26019;47.510;19.122;2023-05-24T14:30:14;100049.28;;;38.15;23.13
39309;BME280;26019;47.510;19.122;2023-05-24T14:40:16;100043.16;;;40.40;21.65
39309;BME280;26019;47.510;19.122;2023-05-24T14:50:20;100046.94;;;39.31;22.70
39309;BME280;26019;47.510;19.122;2023-05-24T15:00:22;100062.19;;;38.97;22.86
39309;BME280;26019;47.510;19.122;2023-05-24T15:10:26;100064.06;;;38.54;23.37
39309;BME280;26019;47.510;19.122;2023-05-24T15:20:28;100065.03;;;38.12;23.16
39309;BME280;26019;47.510;19.122;2023-05-24T15:30:31;100071.22;;;35.52;27.36
39309;BME280;26019;47.510;19.122;2023-05-24T15:40:32;100069.13;;;35.07;27.47
39309;BME280;26019;47.510;19.122;2023-05-24T15:50:34;100071.50;;;34.94;27.36
39309;BME280;26019;47.510;19.122;2023-05-24T16:00:56;100074.50;;;35.07;26.99
39309;BME280;26019;47.510;19.122;2023-05-24T16:11:00;100085.91;;;35.01;26.28
39309;BME280;26019;47.510;19.122;2023-05-24T16:21:04;100093.16;;;33.78;27.81
39309;BME280;26019;47.510;19.122;2023-05-24T16:31:05;100101.41;;;32.29;29.75
39309;BME280;26019;47.510;19.122;2023-05-24T16:41:08;100106.47;;;31.04;32.05
39309;BME280;26019;47.510;19.122;2023-05-24T16:51:09;100123.41;;;30.08;33.23
39309;BME280;26019;47.510;19.122;2023-05-24T17:01:11;100128.63;;;29.49;35.41
39309;BME280;26019;47.510;19.122;2023-05-24T17:11:14;100138.06;;;27.95;38.29
39309;BME280;26019;47.510;19.122;2023-05-24T17:21:17;100147.00;;;27.04;41.64
39309;BME280;26019;47.510;19.122;2023-05-24T17:31:19;100159.66;;;24.40;50.70
39309;BME280;26019;47.510;19.122;2023-05-24T17:41:22;100160.97;;;23.21;63.27
39309;BME280;26019;47.510;19.122;2023-05-24T17:51:23;100168.75;;;22.49;76.77
39309;BME280;26019;47.510;19.122;2023-05-24T18:01:25;100180.72;;;21.76;86.12
39309;BME280;26019;47.510;19.122;2023-05-24T18:11:28;100201.97;;;21.22;96.24
39309;BME280;26019;47.510;19.122;2023-05-24T18:21:30;100214.97;;;21.07;98.70
39309;BME280;26019;47.510;19.122;2023-05-24T18:31:32;100218.78;;;20.84;100.00
39309;BME280;26019;47.510;19.122;2023-05-24T18:41:34;100228.47;;;20.47;100.00
39309;BME280;26019;47.510;19.122;2023-05-24T18:51:36;100235.19;;;20.16;100.00
39309;BME280;26019;47.510;19.122;2023-05-24T19:01:39;100243.59;;;19.84;100.00
39309;BME280;26019;47.510;19.122;2023-05-24T19:11:47;100255.91;;;19.63;100.00
39309;BME280;26019;47.510;19.122;2023-05-24T19:21:49;100252.66;;;19.37;100.00
39309;BME280;26019;47.510;19.122;2023-05-24T19:31:52;100261.16;;;19.02;100.00
39309;BME280;26019;47.510;19.122;2023-05-24T19:41:55;100271.66;;;18.78;100.00
39309;BME280;26019;47.510;19.122;2023-05-24T19:51:56;100274.50;;;18.51;100.00
39309;BME280;26019;47.510;19.122;2023-05-24T20:01:58;100275.94;;;18.36;100.00
39309;BME280;26019;47.510;19.122;2023-05-24T20:12:02;100270.38;;;18.22;100.00
39309;BME280;26019;47.510;19.122;2023-05-24T20:22:06;100270.53;;;18.19;100.00
39309;BME280;26019;47.510;19.122;2023-05-24T20:32:07;100266.00;;;18.00;100.00
39309;BME280;26019;47.510;19.122;2023-05-24T20:42:09;100270.19;;;17.81;100.00
39309;BME280;26019;47.510;19.122;2023-05-24T20:52:12;100280.50;;;17.60;100.00
39309;BME280;26019;47.510;19.122;2023-05-24T21:02:14;100272.22;;;17.49;100.00
39309;BME280;26019;47.510;19.122;2023-05-24T21:12:16;100285.47;;;17.42;100.00
39309;BME280;26019;47.510;19.122;2023-05-24T21:22:19;100286.28;;;17.19;100.00
39309;BME280;26019;47.510;19.122;2023-05-24T21:32:22;100281.72;;;16.99;100.00
39309;BME280;26019;47.510;19.122;2023-05-24T21:42:24;100295.72;;;16.68;100.00
39309;BME280;26019;47.510;19.122;2023-05-24T21:52:25;100305.38;;;16.37;100.00
39309;BME280;26019;47.510;19.122;2023-05-24T22:02:27;100323.91;;;16.28;100.00
39309;BME280;26019;47.510;19.122;2023-05-24T22:12:30;100325.28;;;16.10;100.00
39309;BME280;26019;47.510;19.122;2023-05-24T22:22:32;100335.31;;;15.92;100.00
39309;BME280;26019;47.510;19.122;2023-05-24T22:32:36;100338.88;;;15.90;100.00
39309;BME280;26019;47.510;19.122;2023-05-24T22:42:39;100335.44;;;15.89;100.00
39309;BME280;26019;47.510;19.122;2023-05-24T22:52:43;100347.22;;;15.70;100.00
39309;BME280;26019;47.510;19.122;2023-05-24T23:02:47;100353.56;;;15.59;100.00
39309;BME280;26019;47.510;19.122;2023-05-24T23:12:49;100364.38;;;15.44;100.00
39309;BME280;26019;47.510;19.122;2023-05-24T23:22:53;100372.06;;;15.83;100.00
39309;BME280;26019;47.510;19.122;2023-05-24T23:32:56;100368.94;;;16.33;100.00
39309;BME280;26019;47.510;19.122;2023-05-24T23:42:59;100382.31;;;16.52;100.00
39309;BME280;26019;47.510;19.122;2023-05-24T23:53:02;100374.56;;;16.49;100.00
